Flight Track Log - Related Links

Times and Time Zones

All times are in EDT time to prevent confusion due to time zone crossing. See the COA9990 flight status page for this flight to view local times or setup timezone preferences in your user account.

Time Position Orientation Groundspeed Altitude Reporting Facility
EDT Latitude Longitude Course Direction KTS MPH feet Rate Location/Type
Fri 10:47:34 AM 28.1550 -81.4297 200° South 295 339 14,700  Level Miami Center
Fri 10:48:34 AM 28.0767 -81.4617 199° South 309 356 15,000 150 Climbing Miami Center
Fri 10:49:34 AM 27.9964 -81.4936 201° Southwest 309 356 15,000 -50 Level Miami Center
Fri 10:50:34 AM 27.9203 -81.5258 197° South 304 350 14,900  Descending Miami Center
Fri 10:51:34 AM 27.8419 -81.5531 159° South 304 350 15,000  Climbing Miami Center
Fri 10:52:34 AM 27.7639 -81.5194 156° South 286 329 14,900 -50 Descending Miami Center
Fri 10:53:34 AM 27.6919 -81.4836 159° South 291 335 14,900  Level Miami Center
Fri 10:54:34 AM 27.6136 -81.4500 245° Southwest 305 351 14,900  Level Miami Center
Fri 10:55:34 AM 27.5797 -81.5331 272° West 224 258 14,900 50 Level Miami Center
Fri 10:56:34 AM 27.5828 -81.6314 269° West 242 278 15,000 50 Climbing Miami Center
Fri 10:57:34 AM 27.5814 -81.7392 271° West 280 322 15,000  Level Miami Center
Fri 10:58:34 AM 27.5828 -81.8142 273° West 269 310 15,000 -50 Level Miami Center
Fri 10:59:34 AM 27.5853 -81.8681 273° West 219 252 14,900 -50 Descending Miami Center
Fri 11:00:34 AM 27.5878 -81.9175 303° West 184 212 14,900  Level Miami Center
Fri 11:01:34 AM 27.6153 -81.9656 27° Northeast 171 197 14,900 50 Level Miami Center
Fri 11:02:34 AM 27.6961 -81.9200 41° Northeast 205 236 15,000  Climbing Miami Center
Fri 11:03:34 AM 27.7739 -81.8436 32° Northeast 269 310 14,900 -698 Descending Miami Center
Fri 11:04:43 AM 27.8833 -81.7667 16° North 370 426 13,500 -1,140 Descending Orlando TRACON
Fri 11:05:14 AM 27.9333 -81.7500 360° North 356 410 13,000 -330 Descending Orlando TRACON
Fri 11:06:14 AM 28.0167 -81.7500 24° Northeast 356 410 13,000 -645 Level Orlando TRACON
Fri 11:07:15 AM 28.1167 -81.7000 66° East 358 412 11,700 -1,150 Descending Orlando TRACON
Fri 11:08:14 AM 28.1500 -81.6167 56° Northeast 322 371 10,700 -1,311 Descending Orlando TRACON
Fri 11:09:14 AM 28.2000 -81.5333 41° Northeast 301 346 9,100 -843 Descending Orlando TRACON
Fri 11:10:15 AM 28.2667 -81.4667 24° Northeast 293 337 9,000 -50 Descending Orlando TRACON
Fri 11:11:15 AM 28.3333 -81.4333 360° North 250 288 9,000  Level Orlando TRACON
Fri 11:12:15 AM 28.4000 -81.4333 12° North 243 280 9,000 -500 Level Orlando TRACON
Fri 11:13:15 AM 28.4667 -81.4167 360° North 238 274 8,000 -1,339 Descending Orlando TRACON
Fri 11:14:16 AM 28.5167 -81.4167 24° Northeast 232 267 6,300 -1,884 Descending Orlando TRACON
Fri 11:15:16 AM 28.5833 -81.3833 90° East 237 273 4,200 -1,950 Descending Orlando TRACON
Fri 11:16:16 AM 28.5833 -81.3333 180° South 193 222 2,400 -1,041 Descending Orlando TRACON
Fri 11:17:17 AM 28.5333 -81.3333 180° South 168 193 2,100 -694 Descending Orlando TRACON
Fri 11:18:17 AM 28.4833 -81.3333 180° South 151 174 1,000 -1,100 Descending Orlando TRACON

Login

Don't have an account? Register now (free) for customized features, flight alerts, and more!